Terminal Aerodrome Forecast
Issued by NWS

Home | Current Version | Previous Version | Graphics & Text | Print | Product List | Glossary On
Versions: 1 2 3 4 5 6 7 8 9 10 11 12 13 14 15 16 17 18 19 20 21 22
000
FTUS41 KCLE 280535
TAFFDY
TAF
KFDY 280535Z 2806/2906 15004KT P6SM SCT100 OVC250
     FM281300 14008KT P6SM SCT025 OVC035
     FM281500 12010KT 6SM BR VCSH BKN015 OVC025
      TEMPO 2817/2821 4SM -RA BR SCT008 OVC012
     FM290000 08008KT P6SM SCT015 OVC025
     FM290400 07006KT 6SM BR SCT025 BKN035=

USA.gov is the U.S. government's official web portal to all federal, state and local government web resources and services.